createdAt,value
2023-03-12T00:01:50.648Z,4.07
2023-03-12T00:06:55.188Z,4.27
2023-03-12T00:11:58.080Z,4.17
2023-03-12T00:17:00.895Z,4.37
2023-03-12T00:22:05.047Z,4.13
2023-03-12T00:27:08.337Z,4.23
2023-03-12T00:32:11.422Z,3.90
2023-03-12T00:37:15.526Z,3.90
2023-03-12T00:42:18.736Z,4.97
2023-03-12T00:47:21.533Z,4.43
2023-03-12T00:52:25.747Z,4.53
2023-03-12T00:57:28.538Z,4.90
2023-03-12T01:02:31.285Z,4.87
2023-03-12T01:07:36.285Z,4.97
2023-03-12T01:12:39.137Z,5.30
2023-03-12T01:17:41.976Z,5.50
2023-03-12T01:22:48.025Z,5.23
2023-03-12T01:27:50.835Z,5.80
2023-03-12T01:32:53.675Z,6.20
2023-03-12T01:37:58.015Z,6.00
2023-03-12T01:43:00.791Z,6.17
2023-03-12T01:48:03.634Z,5.27
2023-03-12T01:53:07.903Z,6.33
2023-03-12T01:58:11.981Z,6.03
2023-03-12T02:03:15.226Z,6.87
2023-03-12T02:08:20.115Z,5.67
2023-03-12T02:13:23.062Z,6.27
2023-03-12T02:18:26.690Z,5.63
2023-03-12T02:23:33.480Z,5.33
2023-03-12T02:28:43.913Z,5.77
2023-03-12T02:33:47.110Z,5.87
2023-03-12T02:38:51.377Z,6.17
2023-03-12T02:44:00.337Z,5.17
2023-03-12T02:49:03.412Z,5.27
2023-03-12T02:54:06.979Z,5.33
2023-03-12T02:59:13.252Z,5.13
2023-03-12T03:04:18.408Z,5.23
2023-03-12T03:09:22.244Z,4.33
2023-03-12T03:14:26.841Z,4.27
2023-03-12T03:19:29.744Z,5.07
2023-03-12T03:24:32.743Z,4.00
2023-03-12T03:29:37.023Z,4.10
2023-03-12T03:34:40.071Z,3.90
2023-03-12T03:39:42.961Z,4.17
2023-03-12T03:44:47.563Z,4.30
2023-03-12T03:49:50.853Z,3.73
2023-03-12T03:54:54.280Z,5.07
2023-03-12T04:00:03.389Z,3.80
2023-03-12T04:05:19.630Z,3.63
2023-03-12T04:10:25.457Z,4.83
2023-03-12T04:15:29.626Z,4.13
2023-03-12T04:20:33.222Z,3.87
2023-03-12T04:25:36.724Z,3.27
2023-03-12T04:30:41.158Z,3.87
2023-03-12T04:35:51.667Z,3.70
2023-03-12T04:41:01.487Z,2.93
2023-03-12T04:46:06.544Z,3.20
2023-03-12T04:51:09.840Z,2.80
2023-03-12T04:56:13.256Z,2.70
2023-03-12T05:01:24.868Z,3.80
2023-03-12T05:06:28.394Z,2.93
2023-03-12T05:11:32.590Z,2.97
2023-03-12T05:16:37.136Z,2.60
2023-03-12T05:21:41.412Z,3.00
2023-03-12T05:26:44.564Z,3.50
2023-03-12T05:31:58.438Z,3.17
2023-03-12T05:37:02.331Z,3.17
2023-03-12T05:42:06.480Z,2.33
2023-03-12T05:47:11.389Z,3.60
2023-03-12T05:52:15.895Z,3.17
2023-03-12T05:57:19.834Z,3.23
2023-03-12T06:02:24.104Z,3.43
2023-03-12T06:07:28.302Z,3.03
2023-03-12T06:12:31.165Z,2.97
2023-03-12T06:17:35.438Z,3.03
2023-03-12T06:22:39.059Z,3.10
2023-03-12T06:27:42.318Z,3.47
2023-03-12T06:32:46.813Z,5.83
2023-03-12T06:37:49.740Z,3.73
2023-03-12T06:42:52.549Z,4.70
2023-03-12T06:47:56.800Z,5.17
2023-03-12T06:52:59.696Z,4.40
2023-03-12T06:58:04.017Z,4.57
2023-03-12T07:03:08.308Z,5.63
2023-03-12T07:08:11.210Z,5.70
2023-03-12T07:13:14.241Z,4.73
2023-03-12T07:18:18.344Z,4.47
2023-03-12T07:23:21.243Z,4.50
2023-03-12T07:28:24.131Z,4.77
2023-03-12T07:33:28.352Z,6.70
2023-03-12T07:38:31.726Z,6.47
2023-03-12T07:43:34.603Z,7.07
2023-03-12T07:48:39.056Z,6.67
2023-03-12T07:53:41.910Z,6.77
2023-03-12T07:58:44.964Z,6.47
2023-03-12T08:03:50.242Z,6.90
2023-03-12T08:08:53.445Z,6.67
2023-03-12T08:13:56.479Z,6.87
2023-03-12T08:19:00.832Z,6.57
2023-03-12T08:24:03.843Z,8.10
2023-03-12T08:29:07.030Z,8.70
2023-03-12T08:34:11.534Z,8.37
2023-03-12T08:39:14.618Z,10.07
2023-03-12T08:44:17.510Z,9.87
2023-03-12T08:49:22.453Z,10.30
2023-03-12T08:54:25.383Z,9.93
2023-03-12T08:59:28.489Z,11.80
2023-03-12T09:04:32.833Z,11.67
2023-03-12T09:09:35.790Z,12.50
2023-03-12T09:20:06.915Z,12.73
2023-03-12T09:25:11.657Z,10.80
2023-03-12T09:30:16.397Z,11.33
2023-03-12T09:35:20.869Z,13.10
2023-03-12T09:40:26.023Z,11.17
2023-03-12T09:45:31.815Z,11.23
2023-03-12T09:50:40.205Z,11.50
2023-03-12T09:55:45.101Z,10.60
2023-03-12T10:00:48.050Z,10.40
2023-03-12T10:06:03.934Z,9.90
2023-03-12T10:11:13.188Z,7.20
2023-03-12T10:16:24.619Z,5.17
2023-03-12T10:21:32.346Z,6.27
2023-03-12T10:26:39.964Z,7.53
2023-03-12T10:31:49.938Z,6.17
2023-03-12T10:36:56.022Z,5.30
2023-03-12T10:42:01.582Z,5.53
2023-03-12T10:47:22.996Z,5.50
2023-03-12T10:52:27.151Z,4.70
2023-03-12T10:57:40.561Z,5.73
2023-03-12T11:02:45.739Z,5.80
2023-03-12T11:07:50.669Z,6.20
2023-03-12T11:47:44.183Z,5.50
2023-03-12T11:53:03.078Z,6.53
2023-03-12T11:58:21.521Z,8.83
2023-03-12T12:15:19.748Z,6.50
2023-03-12T12:20:30.488Z,6.13
2023-03-12T12:25:53.909Z,6.17
2023-03-12T12:31:09.887Z,6.70
2023-03-12T12:36:13.651Z,6.23
2023-03-12T12:41:18.001Z,5.60
2023-03-12T12:46:25.232Z,6.97
2023-03-12T12:51:30.498Z,7.43
2023-03-12T12:56:35.413Z,5.70
2023-03-12T13:01:40.108Z,6.67
2023-03-12T13:06:55.777Z,6.13
2023-03-12T13:11:58.637Z,9.33
2023-03-12T13:17:31.244Z,7.40
2023-03-12T13:22:46.374Z,7.67
2023-03-12T13:27:59.040Z,6.73
2023-03-12T13:33:14.643Z,6.80
2023-03-12T13:38:24.536Z,12.27
2023-03-12T13:43:52.777Z,8.43
2023-03-12T13:48:59.355Z,11.57
2023-03-12T13:54:04.397Z,6.40
2023-03-12T13:59:09.622Z,5.83
2023-03-12T14:04:18.708Z,7.10
2023-03-12T14:09:28.344Z,8.60
2023-03-12T14:14:52.279Z,5.80
2023-03-12T14:20:01.947Z,7.77
2023-03-12T14:25:07.905Z,6.00
2023-03-12T14:30:14.596Z,6.60
2023-03-12T14:35:23.318Z,5.30
2023-03-12T14:40:31.716Z,5.23
2023-03-12T14:45:41.096Z,6.77
2023-03-12T14:50:46.655Z,5.03
2023-03-12T14:55:59.746Z,8.73
2023-03-12T15:01:05.668Z,5.77
2023-03-12T15:06:16.468Z,5.87
2023-03-12T15:11:23.061Z,4.90
2023-03-12T15:16:26.043Z,5.93
2023-03-12T15:21:30.372Z,6.30
2023-03-12T15:26:37.871Z,7.50
2023-03-12T15:31:44.640Z,5.03
2023-03-12T15:36:51.521Z,5.83
2023-03-12T15:41:55.272Z,5.00
2023-03-12T15:47:04.612Z,6.40
2023-03-12T15:52:28.454Z,6.50
2023-03-12T15:57:32.057Z,6.40
2023-03-12T16:02:39.831Z,5.50
2023-03-12T16:07:44.152Z,5.47
2023-03-12T16:12:47.958Z,6.57
2023-03-12T16:17:50.729Z,5.70
2023-03-12T16:22:54.898Z,5.67
2023-03-12T16:27:59.675Z,6.13
2023-03-12T16:33:06.031Z,7.37
2023-03-12T16:38:12.514Z,7.17
2023-03-12T16:43:17.995Z,7.10
2023-03-12T16:48:23.092Z,7.10
2023-03-12T16:53:27.350Z,6.23
2023-03-12T16:58:31.367Z,8.30
2023-03-12T17:03:38.062Z,6.53
2023-03-12T17:08:42.997Z,8.37
2023-03-12T17:13:47.315Z,6.37
2023-03-12T17:18:50.147Z,8.43
2023-03-12T17:23:54.328Z,8.90
2023-03-12T17:28:57.900Z,7.93
2023-03-12T17:34:03.840Z,8.57
2023-03-12T17:39:08.135Z,7.27
2023-03-12T17:44:11.790Z,7.33
2023-03-12T17:49:14.654Z,9.77
2023-03-12T17:54:18.853Z,8.27
2023-03-12T17:59:21.664Z,6.60
2023-03-12T18:04:24.521Z,10.60
2023-03-12T18:09:28.861Z,7.83
2023-03-12T18:14:31.697Z,10.53
2023-03-12T18:19:35.707Z,7.97
2023-03-12T18:24:39.986Z,9.07
2023-03-12T18:29:42.944Z,8.57
2023-03-12T18:34:45.734Z,5.83
2023-03-12T18:39:49.990Z,5.27
2023-03-12T18:44:52.850Z,5.23
2023-03-12T18:49:55.962Z,4.10
2023-03-12T18:55:00.165Z,4.97
2023-03-12T19:00:03.513Z,3.97
2023-03-12T19:05:06.690Z,6.90
2023-03-12T19:10:12.697Z,4.53
2023-03-12T19:15:15.590Z,4.80
2023-03-12T19:20:21.499Z,6.83
2023-03-12T19:25:25.734Z,4.50
2023-03-12T19:30:30.642Z,6.67
2023-03-12T19:35:33.633Z,7.07
2023-03-12T19:40:37.802Z,5.33
2023-03-12T19:45:40.640Z,5.17
2023-03-12T19:50:44.888Z,5.50
2023-03-12T19:55:50.231Z,6.20
2023-03-12T20:00:53.046Z,4.10
2023-03-12T20:05:56.029Z,3.90
2023-03-12T20:11:07.768Z,4.57
2023-03-12T20:16:12.502Z,3.53
2023-03-12T20:21:15.362Z,4.13
2023-03-12T20:26:19.540Z,4.00
2023-03-12T20:31:22.441Z,5.20
2023-03-12T20:36:25.710Z,5.80
2023-03-12T20:41:30.789Z,5.40
2023-03-12T20:46:33.677Z,4.00
2023-03-12T20:51:36.612Z,4.10
2023-03-12T20:56:43.727Z,5.87
2023-03-12T21:01:46.710Z,5.70
2023-03-12T21:06:51.575Z,6.60
2023-03-12T21:11:56.041Z,4.73
2023-03-12T21:16:59.782Z,4.70
2023-03-12T21:22:02.712Z,4.33
2023-03-12T21:27:06.830Z,5.47
2023-03-12T21:32:09.573Z,4.90
2023-03-12T21:37:12.417Z,5.30
2023-03-12T21:42:16.564Z,5.13
2023-03-12T21:47:19.401Z,5.27
2023-03-12T21:52:22.204Z,6.67
2023-03-12T21:57:26.454Z,4.23
2023-03-12T22:02:29.516Z,4.47
2023-03-12T22:07:32.329Z,5.80
2023-03-12T22:12:36.590Z,5.93
2023-03-12T22:17:39.356Z,4.83
2023-03-12T22:22:42.133Z,4.30
2023-03-12T22:27:46.355Z,4.70
2023-03-12T22:32:49.192Z,5.03
2023-03-12T22:37:52.031Z,3.93
2023-03-12T22:42:57.442Z,4.43
2023-03-12T22:48:00.439Z,8.23
2023-03-12T22:53:03.264Z,6.63
2023-03-12T22:58:07.459Z,7.17
2023-03-12T23:03:10.276Z,5.17
2023-03-12T23:08:13.073Z,4.60
2023-03-12T23:13:17.275Z,6.63
2023-03-12T23:18:21.012Z,5.20
2023-03-12T23:23:23.793Z,7.97
2023-03-12T23:28:29.212Z,4.60
2023-03-12T23:33:33.188Z,6.37
2023-03-12T23:38:37.620Z,6.43
2023-03-12T23:43:42.077Z,5.47
2023-03-12T23:48:45.465Z,5.50
2023-03-12T23:53:50.026Z,8.93
2023-03-12T23:58:54.507Z,5.43
